sensor_id;sensor_type;location;lat;lon;timestamp;P1;durP1;ratioP1;P2;durP2;ratioP2
56045;SDS011;41913;51.030;3.706;2023-12-07T00:01:53;4.28;;;3.88;;
56045;SDS011;41913;51.030;3.706;2023-12-07T00:04:19;3.63;;;3.33;;
56045;SDS011;41913;51.030;3.706;2023-12-07T00:06:45;7.13;;;3.78;;
56045;SDS011;41913;51.030;3.706;2023-12-07T00:09:10;3.67;;;3.38;;
56045;SDS011;41913;51.030;3.706;2023-12-07T00:11:36;3.85;;;3.60;;
56045;SDS011;41913;51.030;3.706;2023-12-07T00:14:02;3.35;;;3.15;;
56045;SDS011;41913;51.030;3.706;2023-12-07T00:16:27;3.33;;;3.13;;
56045;SDS011;41913;51.030;3.706;2023-12-07T00:18:53;3.65;;;3.45;;
56045;SDS011;41913;51.030;3.706;2023-12-07T00:21:19;3.33;;;3.13;;
56045;SDS011;41913;51.030;3.706;2023-12-07T00:23:45;3.65;;;3.35;;
56045;SDS011;41913;51.030;3.706;2023-12-07T00:26:10;3.70;;;3.50;;
56045;SDS011;41913;51.030;3.706;2023-12-07T00:28:36;3.03;;;2.92;;
56045;SDS011;41913;51.030;3.706;2023-12-07T00:31:02;3.17;;;2.97;;
56045;SDS011;41913;51.030;3.706;2023-12-07T00:33:28;3.90;;;3.70;;
56045;SDS011;41913;51.030;3.706;2023-12-07T00:35:54;3.25;;;3.13;;
56045;SDS011;41913;51.030;3.706;2023-12-07T00:38:19;3.40;;;3.20;;
56045;SDS011;41913;51.030;3.706;2023-12-07T00:40:46;4.20;;;3.28;;
56045;SDS011;41913;51.030;3.706;2023-12-07T00:43:12;3.38;;;3.28;;
56045;SDS011;41913;51.030;3.706;2023-12-07T00:45:38;3.33;;;3.13;;
56045;SDS011;41913;51.030;3.706;2023-12-07T00:48:04;3.33;;;3.17;;
56045;SDS011;41913;51.030;3.706;2023-12-07T00:50:30;3.28;;;3.08;;
56045;SDS011;41913;51.030;3.706;2023-12-07T00:52:56;3.40;;;3.20;;
56045;SDS011;41913;51.030;3.706;2023-12-07T00:55:22;3.53;;;3.30;;
56045;SDS011;41913;51.030;3.706;2023-12-07T00:57:47;3.85;;;3.47;;
56045;SDS011;41913;51.030;3.706;2023-12-07T01:00:13;3.58;;;3.28;;
56045;SDS011;41913;51.030;3.706;2023-12-07T01:02:39;3.22;;;3.03;;
56045;SDS011;41913;51.030;3.706;2023-12-07T01:05:05;3.03;;;2.90;;
56045;SDS011;41913;51.030;3.706;2023-12-07T01:07:31;3.65;;;3.28;;
56045;SDS011;41913;51.030;3.706;2023-12-07T01:09:57;3.35;;;3.15;;
56045;SDS011;41913;51.030;3.706;2023-12-07T01:12:22;3.05;;;2.85;;
56045;SDS011;41913;51.030;3.706;2023-12-07T01:14:48;3.05;;;2.95;;
56045;SDS011;41913;51.030;3.706;2023-12-07T01:17:14;2.92;;;2.83;;
56045;SDS011;41913;51.030;3.706;2023-12-07T01:19:40;2.90;;;2.80;;
56045;SDS011;41913;51.030;3.706;2023-12-07T01:22:06;3.15;;;3.03;;
56045;SDS011;41913;51.030;3.706;2023-12-07T01:24:31;2.55;;;2.45;;
56045;SDS011;41913;51.030;3.706;2023-12-07T01:26:57;3.13;;;2.92;;
56045;SDS011;41913;51.030;3.706;2023-12-07T01:29:23;3.13;;;3.00;;
56045;SDS011;41913;51.030;3.706;2023-12-07T01:31:49;3.45;;;3.30;;
56045;SDS011;41913;51.030;3.706;2023-12-07T01:34:16;3.08;;;2.88;;
56045;SDS011;41913;51.030;3.706;2023-12-07T01:36:43;2.80;;;2.70;;
56045;SDS011;41913;51.030;3.706;2023-12-07T01:39:09;3.03;;;2.92;;
56045;SDS011;41913;51.030;3.706;2023-12-07T01:41:39;2.83;;;2.72;;
56045;SDS011;41913;51.030;3.706;2023-12-07T01:44:05;3.58;;;3.38;;
56045;SDS011;41913;51.030;3.706;2023-12-07T01:46:31;2.78;;;2.67;;
56045;SDS011;41913;51.030;3.706;2023-12-07T01:48:58;2.90;;;2.80;;
56045;SDS011;41913;51.030;3.706;2023-12-07T01:51:24;3.70;;;3.40;;
56045;SDS011;41913;51.030;3.706;2023-12-07T01:53:51;3.40;;;3.20;;
56045;SDS011;41913;51.030;3.706;2023-12-07T01:56:18;3.05;;;2.88;;
56045;SDS011;41913;51.030;3.706;2023-12-07T01:58:45;3.15;;;2.90;;
56045;SDS011;41913;51.030;3.706;2023-12-07T02:01:11;3.40;;;3.30;;
56045;SDS011;41913;51.030;3.706;2023-12-07T02:03:40;2.97;;;2.88;;
56045;SDS011;41913;51.030;3.706;2023-12-07T02:06:06;3.10;;;3.00;;
56045;SDS011;41913;51.030;3.706;2023-12-07T02:08:34;3.17;;;3.00;;
56045;SDS011;41913;51.030;3.706;2023-12-07T02:11:00;3.17;;;3.08;;
56045;SDS011;41913;51.030;3.706;2023-12-07T02:13:27;3.72;;;3.53;;
56045;SDS011;41913;51.030;3.706;2023-12-07T02:15:53;3.47;;;3.28;;
56045;SDS011;41913;51.030;3.706;2023-12-07T02:18:32;3.35;;;3.15;;
56045;SDS011;41913;51.030;3.706;2023-12-07T02:23:51;3.72;;;3.53;;
56045;SDS011;41913;51.030;3.706;2023-12-07T02:26:18;3.17;;;2.97;;
56045;SDS011;41913;51.030;3.706;2023-12-07T02:28:46;3.47;;;3.28;;
56045;SDS011;41913;51.030;3.706;2023-12-07T02:31:13;3.13;;;3.03;;
56045;SDS011;41913;51.030;3.706;2023-12-07T02:33:38;3.70;;;3.50;;
56045;SDS011;41913;51.030;3.706;2023-12-07T02:36:04;4.75;;;3.90;;
56045;SDS011;41913;51.030;3.706;2023-12-07T02:38:30;4.43;;;3.88;;
56045;SDS011;41913;51.030;3.706;2023-12-07T02:40:57;3.72;;;3.47;;
56045;SDS011;41913;51.030;3.706;2023-12-07T02:43:26;3.92;;;3.63;;
56045;SDS011;41913;51.030;3.706;2023-12-07T02:45:52;3.47;;;3.28;;
56045;SDS011;41913;51.030;3.706;2023-12-07T02:48:20;3.45;;;3.25;;
56045;SDS011;41913;51.030;3.706;2023-12-07T02:50:46;3.75;;;3.55;;
56045;SDS011;41913;51.030;3.706;2023-12-07T02:53:12;3.75;;;3.50;;
56045;SDS011;41913;51.030;3.706;2023-12-07T02:55:38;3.45;;;3.25;;
56045;SDS011;41913;51.030;3.706;2023-12-07T02:58:04;3.88;;;3.67;;
56045;SDS011;41913;51.030;3.706;2023-12-07T03:00:30;3.33;;;3.13;;
56045;SDS011;41913;51.030;3.706;2023-12-07T03:02:55;3.67;;;3.47;;
56045;SDS011;41913;51.030;3.706;2023-12-07T03:05:21;3.17;;;3.08;;
56045;SDS011;41913;51.030;3.706;2023-12-07T03:07:48;3.03;;;2.83;;
56045;SDS011;41913;51.030;3.706;2023-12-07T03:10:14;3.40;;;3.20;;
56045;SDS011;41913;51.030;3.706;2023-12-07T03:12:39;4.13;;;3.80;;
56045;SDS011;41913;51.030;3.706;2023-12-07T03:15:05;3.53;;;3.33;;
56045;SDS011;41913;51.030;3.706;2023-12-07T03:17:31;4.18;;;3.80;;
56045;SDS011;41913;51.030;3.706;2023-12-07T03:19:57;5.47;;;4.32;;
56045;SDS011;41913;51.030;3.706;2023-12-07T03:22:23;3.97;;;3.67;;
56045;SDS011;41913;51.030;3.706;2023-12-07T03:24:50;3.97;;;3.78;;
56045;SDS011;41913;51.030;3.706;2023-12-07T03:27:17;4.57;;;4.18;;
56045;SDS011;41913;51.030;3.706;2023-12-07T03:29:42;4.40;;;4.00;;
56045;SDS011;41913;51.030;3.706;2023-12-07T03:32:08;4.13;;;3.42;;
56045;SDS011;41913;51.030;3.706;2023-12-07T03:34:34;3.47;;;3.28;;
56045;SDS011;41913;51.030;3.706;2023-12-07T03:37:00;4.10;;;3.80;;
56045;SDS011;41913;51.030;3.706;2023-12-07T03:39:26;4.00;;;3.70;;
56045;SDS011;41913;51.030;3.706;2023-12-07T03:41:52;4.20;;;3.70;;
56045;SDS011;41913;51.030;3.706;2023-12-07T03:44:18;3.78;;;3.47;;
56045;SDS011;41913;51.030;3.706;2023-12-07T03:46:43;3.63;;;3.40;;
56045;SDS011;41913;51.030;3.706;2023-12-07T03:49:09;4.32;;;3.83;;
56045;SDS011;41913;51.030;3.706;2023-12-07T03:51:35;4.50;;;4.20;;
56045;SDS011;41913;51.030;3.706;2023-12-07T03:54:02;3.83;;;3.60;;
56045;SDS011;41913;51.030;3.706;2023-12-07T03:56:29;4.43;;;4.13;;
56045;SDS011;41913;51.030;3.706;2023-12-07T03:58:56;3.92;;;3.63;;
56045;SDS011;41913;51.030;3.706;2023-12-07T04:01:22;3.95;;;3.67;;
56045;SDS011;41913;51.030;3.706;2023-12-07T04:03:49;4.00;;;3.70;;
56045;SDS011;41913;51.030;3.706;2023-12-07T04:06:15;4.20;;;3.90;;
56045;SDS011;41913;51.030;3.706;2023-12-07T04:08:41;5.78;;;4.15;;
56045;SDS011;41913;51.030;3.706;2023-12-07T04:11:07;3.63;;;3.42;;
56045;SDS011;41913;51.030;3.706;2023-12-07T04:13:33;4.72;;;4.32;;
56045;SDS011;41913;51.030;3.706;2023-12-07T04:15:59;3.60;;;3.40;;
56045;SDS011;41913;51.030;3.706;2023-12-07T04:18:25;3.88;;;3.67;;
56045;SDS011;41913;51.030;3.706;2023-12-07T04:20:50;4.07;;;3.78;;
56045;SDS011;41913;51.030;3.706;2023-12-07T04:23:16;4.10;;;3.90;;
56045;SDS011;41913;51.030;3.706;2023-12-07T04:25:42;4.35;;;3.95;;
56045;SDS011;41913;51.030;3.706;2023-12-07T04:28:08;4.13;;;3.78;;
56045;SDS011;41913;51.030;3.706;2023-12-07T04:30:34;8.43;;;3.50;;
56045;SDS011;41913;51.030;3.706;2023-12-07T04:33:00;4.45;;;4.15;;
56045;SDS011;41913;51.030;3.706;2023-12-07T04:35:26;6.28;;;3.65;;
56045;SDS011;41913;51.030;3.706;2023-12-07T04:37:53;3.72;;;3.42;;
56045;SDS011;41913;51.030;3.706;2023-12-07T04:40:19;4.22;;;3.72;;
56045;SDS011;41913;51.030;3.706;2023-12-07T04:42:45;4.15;;;3.85;;
56045;SDS011;41913;51.030;3.706;2023-12-07T04:45:11;4.00;;;3.75;;
56045;SDS011;41913;51.030;3.706;2023-12-07T04:47:37;4.40;;;4.10;;
56045;SDS011;41913;51.030;3.706;2023-12-07T04:50:03;5.10;;;4.25;;
56045;SDS011;41913;51.030;3.706;2023-12-07T04:52:29;3.55;;;3.35;;
56045;SDS011;41913;51.030;3.706;2023-12-07T04:54:55;4.10;;;3.80;;
56045;SDS011;41913;51.030;3.706;2023-12-07T04:57:20;4.68;;;3.60;;
56045;SDS011;41913;51.030;3.706;2023-12-07T04:59:46;4.28;;;3.95;;
56045;SDS011;41913;51.030;3.706;2023-12-07T05:02:16;4.93;;;4.22;;
56045;SDS011;41913;51.030;3.706;2023-12-07T05:04:42;4.35;;;3.95;;
56045;SDS011;41913;51.030;3.706;2023-12-07T05:07:10;4.78;;;4.18;;
56045;SDS011;41913;51.030;3.706;2023-12-07T05:09:39;5.00;;;4.63;;
56045;SDS011;41913;51.030;3.706;2023-12-07T05:12:05;5.22;;;4.78;;
56045;SDS011;41913;51.030;3.706;2023-12-07T05:14:32;6.03;;;4.38;;
56045;SDS011;41913;51.030;3.706;2023-12-07T05:16:58;4.53;;;4.22;;
56045;SDS011;41913;51.030;3.706;2023-12-07T05:19:24;5.00;;;4.57;;
56045;SDS011;41913;51.030;3.706;2023-12-07T05:21:53;5.57;;;5.07;;
56045;SDS011;41913;51.030;3.706;2023-12-07T05:24:19;4.63;;;4.22;;
56045;SDS011;41913;51.030;3.706;2023-12-07T05:26:45;5.47;;;4.80;;
56045;SDS011;41913;51.030;3.706;2023-12-07T05:29:11;5.15;;;4.68;;
56045;SDS011;41913;51.030;3.706;2023-12-07T05:31:37;5.70;;;4.75;;
56045;SDS011;41913;51.030;3.706;2023-12-07T05:34:04;5.18;;;4.35;;
56045;SDS011;41913;51.030;3.706;2023-12-07T05:36:30;5.30;;;4.78;;
56045;SDS011;41913;51.030;3.706;2023-12-07T05:38:57;5.18;;;4.78;;
56045;SDS011;41913;51.030;3.706;2023-12-07T05:41:23;5.32;;;4.43;;
56045;SDS011;41913;51.030;3.706;2023-12-07T05:43:49;5.00;;;4.40;;
56045;SDS011;41913;51.030;3.706;2023-12-07T05:46:16;5.28;;;4.88;;
56045;SDS011;41913;51.030;3.706;2023-12-07T05:48:42;6.60;;;5.22;;
56045;SDS011;41913;51.030;3.706;2023-12-07T05:51:17;5.20;;;4.80;;
56045;SDS011;41913;51.030;3.706;2023-12-07T05:53:43;5.32;;;4.82;;
56045;SDS011;41913;51.030;3.706;2023-12-07T05:56:09;5.05;;;4.65;;
56045;SDS011;41913;51.030;3.706;2023-12-07T05:58:36;5.57;;;5.05;;
56045;SDS011;41913;51.030;3.706;2023-12-07T06:01:02;5.28;;;4.35;;
56045;SDS011;41913;51.030;3.706;2023-12-07T06:03:29;5.47;;;5.03;;
56045;SDS011;41913;51.030;3.706;2023-12-07T06:05:55;4.65;;;4.28;;
56045;SDS011;41913;51.030;3.706;2023-12-07T06:08:21;4.40;;;4.10;;
56045;SDS011;41913;51.030;3.706;2023-12-07T06:10:48;5.22;;;4.72;;
56045;SDS011;41913;51.030;3.706;2023-12-07T06:13:14;5.35;;;4.82;;
56045;SDS011;41913;51.030;3.706;2023-12-07T06:15:40;5.82;;;5.13;;
56045;SDS011;41913;51.030;3.706;2023-12-07T06:18:06;5.88;;;5.38;;
56045;SDS011;41913;51.030;3.706;2023-12-07T06:20:33;4.00;;;3.70;;
56045;SDS011;41913;51.030;3.706;2023-12-07T06:23:00;5.93;;;4.18;;
56045;SDS011;41913;51.030;3.706;2023-12-07T06:25:28;6.00;;;4.72;;
56045;SDS011;41913;51.030;3.706;2023-12-07T06:27:53;4.07;;;3.75;;
56045;SDS011;41913;51.030;3.706;2023-12-07T06:30:21;4.43;;;4.13;;
56045;SDS011;41913;51.030;3.706;2023-12-07T06:32:47;4.25;;;3.88;;
56045;SDS011;41913;51.030;3.706;2023-12-07T06:35:13;4.25;;;3.85;;
56045;SDS011;41913;51.030;3.706;2023-12-07T06:37:39;4.97;;;4.60;;
56045;SDS011;41913;51.030;3.706;2023-12-07T06:40:07;6.25;;;3.90;;
56045;SDS011;41913;51.030;3.706;2023-12-07T06:42:34;13.00;;;3.47;;
56045;SDS011;41913;51.030;3.706;2023-12-07T06:45:00;6.47;;;4.32;;
56045;SDS011;41913;51.030;3.706;2023-12-07T06:47:27;13.20;;;3.38;;
56045;SDS011;41913;51.030;3.706;2023-12-07T06:49:53;16.60;;;4.55;;
56045;SDS011;41913;51.030;3.706;2023-12-07T06:52:20;19.33;;;6.20;;
56045;SDS011;41913;51.030;3.706;2023-12-07T06:54:46;27.05;;;5.30;;
56045;SDS011;41913;51.030;3.706;2023-12-07T06:57:12;19.98;;;5.07;;
56045;SDS011;41913;51.030;3.706;2023-12-07T06:59:38;48.13;;;7.32;;
56045;SDS011;41913;51.030;3.706;2023-12-07T07:02:03;19.52;;;5.53;;
56045;SDS011;41913;51.030;3.706;2023-12-07T07:04:29;19.50;;;4.65;;
56045;SDS011;41913;51.030;3.706;2023-12-07T07:06:55;25.58;;;6.15;;
56045;SDS011;41913;51.030;3.706;2023-12-07T07:09:21;19.95;;;5.38;;
56045;SDS011;41913;51.030;3.706;2023-12-07T07:11:47;21.60;;;5.72;;
56045;SDS011;41913;51.030;3.706;2023-12-07T07:14:13;24.00;;;6.30;;
56045;SDS011;41913;51.030;3.706;2023-12-07T07:16:40;16.30;;;4.20;;
56045;SDS011;41913;51.030;3.706;2023-12-07T07:19:06;12.10;;;4.13;;
56045;SDS011;41913;51.030;3.706;2023-12-07T07:21:32;10.00;;;4.50;;
56045;SDS011;41913;51.030;3.706;2023-12-07T07:23:58;13.98;;;4.40;;
56045;SDS011;41913;51.030;3.706;2023-12-07T07:26:24;20.98;;;5.13;;
56045;SDS011;41913;51.030;3.706;2023-12-07T07:28:52;22.45;;;5.78;;
56045;SDS011;41913;51.030;3.706;2023-12-07T07:31:18;6.70;;;4.22;;
56045;SDS011;41913;51.030;3.706;2023-12-07T07:33:45;18.83;;;4.30;;
56045;SDS011;41913;51.030;3.706;2023-12-07T07:36:14;6.07;;;4.30;;
56045;SDS011;41913;51.030;3.706;2023-12-07T07:38:40;10.02;;;3.65;;
56045;SDS011;41913;51.030;3.706;2023-12-07T07:41:06;6.32;;;3.60;;
56045;SDS011;41913;51.030;3.706;2023-12-07T07:43:32;5.68;;;3.70;;
56045;SDS011;41913;51.030;3.706;2023-12-07T07:45:59;6.88;;;3.83;;
56045;SDS011;41913;51.030;3.706;2023-12-07T07:48:25;7.20;;;3.70;;
56045;SDS011;41913;51.030;3.706;2023-12-07T07:50:51;7.00;;;4.65;;
56045;SDS011;41913;51.030;3.706;2023-12-07T07:53:17;6.93;;;4.47;;
56045;SDS011;41913;51.030;3.706;2023-12-07T07:55:43;10.93;;;3.75;;
56045;SDS011;41913;51.030;3.706;2023-12-07T07:58:09;4.05;;;3.30;;
56045;SDS011;41913;51.030;3.706;2023-12-07T08:00:35;8.63;;;4.13;;
56045;SDS011;41913;51.030;3.706;2023-12-07T08:03:01;9.82;;;4.28;;
56045;SDS011;41913;51.030;3.706;2023-12-07T08:05:26;7.97;;;3.65;;
56045;SDS011;41913;51.030;3.706;2023-12-07T08:07:52;6.57;;;3.78;;
56045;SDS011;41913;51.030;3.706;2023-12-07T08:10:18;8.27;;;3.63;;
56045;SDS011;41913;51.030;3.706;2023-12-07T08:12:44;6.72;;;2.97;;
56045;SDS011;41913;51.030;3.706;2023-12-07T08:15:10;8.93;;;4.03;;
56045;SDS011;41913;51.030;3.706;2023-12-07T08:17:44;7.53;;;4.00;;
56045;SDS011;41913;51.030;3.706;2023-12-07T08:20:10;4.03;;;3.35;;
56045;SDS011;41913;51.030;3.706;2023-12-07T08:22:38;3.97;;;3.38;;
56045;SDS011;41913;51.030;3.706;2023-12-07T08:25:04;3.83;;;3.53;;
56045;SDS011;41913;51.030;3.706;2023-12-07T08:27:33;7.55;;;3.60;;
56045;SDS011;41913;51.030;3.706;2023-12-07T08:29:59;4.15;;;3.15;;
56045;SDS011;41913;51.030;3.706;2023-12-07T08:32:26;5.85;;;4.03;;
56045;SDS011;41913;51.030;3.706;2023-12-07T08:34:52;3.70;;;3.33;;
56045;SDS011;41913;51.030;3.706;2023-12-07T08:37:18;6.57;;;3.25;;
56045;SDS011;41913;51.030;3.706;2023-12-07T08:39:44;5.13;;;2.78;;
56045;SDS011;41913;51.030;3.706;2023-12-07T08:42:10;3.38;;;3.08;;
56045;SDS011;41913;51.030;3.706;2023-12-07T08:44:36;5.88;;;3.58;;
56045;SDS011;41913;51.030;3.706;2023-12-07T08:47:02;8.02;;;3.22;;
56045;SDS011;41913;51.030;3.706;2023-12-07T08:49:28;6.80;;;3.72;;
56045;SDS011;41913;51.030;3.706;2023-12-07T08:51:54;4.50;;;3.08;;
56045;SDS011;41913;51.030;3.706;2023-12-07T08:54:21;5.03;;;3.55;;
56045;SDS011;41913;51.030;3.706;2023-12-07T08:56:47;4.40;;;2.85;;
56045;SDS011;41913;51.030;3.706;2023-12-07T08:59:12;6.13;;;3.33;;
56045;SDS011;41913;51.030;3.706;2023-12-07T09:01:38;6.55;;;3.65;;
56045;SDS011;41913;51.030;3.706;2023-12-07T09:04:04;4.43;;;2.80;;
56045;SDS011;41913;51.030;3.706;2023-12-07T09:06:30;5.18;;;3.45;;
56045;SDS011;41913;51.030;3.706;2023-12-07T09:08:56;3.53;;;2.67;;
56045;SDS011;41913;51.030;3.706;2023-12-07T09:11:22;3.58;;;3.20;;
56045;SDS011;41913;51.030;3.706;2023-12-07T09:13:48;3.85;;;3.55;;
56045;SDS011;41913;51.030;3.706;2023-12-07T09:16:14;3.53;;;3.08;;
56045;SDS011;41913;51.030;3.706;2023-12-07T09:18:41;8.32;;;3.03;;
56045;SDS011;41913;51.030;3.706;2023-12-07T09:21:07;3.45;;;3.10;;
56045;SDS011;41913;51.030;3.706;2023-12-07T09:23:36;4.82;;;2.72;;
56045;SDS011;41913;51.030;3.706;2023-12-07T09:26:02;3.10;;;2.80;;
56045;SDS011;41913;51.030;3.706;2023-12-07T09:28:29;2.92;;;2.72;;
56045;SDS011;41913;51.030;3.706;2023-12-07T09:30:54;3.95;;;2.78;;
56045;SDS011;41913;51.030;3.706;2023-12-07T09:33:20;2.75;;;2.42;;
56045;SDS011;41913;51.030;3.706;2023-12-07T09:35:46;7.18;;;3.08;;
56045;SDS011;41913;51.030;3.706;2023-12-07T09:38:12;7.82;;;3.17;;
56045;SDS011;41913;51.030;3.706;2023-12-07T09:40:38;3.15;;;2.92;;
56045;SDS011;41913;51.030;3.706;2023-12-07T09:43:03;8.73;;;3.67;;
56045;SDS011;41913;51.030;3.706;2023-12-07T09:45:30;4.90;;;2.95;;
56045;SDS011;41913;51.030;3.706;2023-12-07T09:47:56;2.95;;;2.65;;
56045;SDS011;41913;51.030;3.706;2023-12-07T09:50:23;4.50;;;2.63;;
56045;SDS011;41913;51.030;3.706;2023-12-07T09:52:51;8.05;;;2.83;;
56045;SDS011;41913;51.030;3.706;2023-12-07T09:55:18;2.90;;;2.63;;
56045;SDS011;41913;51.030;3.706;2023-12-07T09:57:45;7.60;;;3.28;;
56045;SDS011;41913;51.030;3.706;2023-12-07T10:00:12;3.67;;;2.42;;
56045;SDS011;41913;51.030;3.706;2023-12-07T10:02:40;3.70;;;3.00;;
56045;SDS011;41913;51.030;3.706;2023-12-07T10:05:08;4.18;;;2.65;;
56045;SDS011;41913;51.030;3.706;2023-12-07T10:07:45;4.28;;;2.75;;
56045;SDS011;41913;51.030;3.706;2023-12-07T10:10:12;3.65;;;2.88;;
56045;SDS011;41913;51.030;3.706;2023-12-07T10:12:51;2.90;;;2.70;;
56045;SDS011;41913;51.030;3.706;2023-12-07T10:15:22;5.03;;;3.53;;
56045;SDS011;41913;51.030;3.706;2023-12-07T10:17:50;2.92;;;2.70;;
56045;SDS011;41913;51.030;3.706;2023-12-07T10:20:18;4.03;;;3.47;;
56045;SDS011;41913;51.030;3.706;2023-12-07T10:22:48;6.18;;;3.10;;
56045;SDS011;41913;51.030;3.706;2023-12-07T10:25:40;4.65;;;3.75;;
56045;SDS011;41913;51.030;3.706;2023-12-07T10:28:07;3.53;;;3.20;;
56045;SDS011;41913;51.030;3.706;2023-12-07T10:30:37;3.08;;;2.72;;
56045;SDS011;41913;51.030;3.706;2023-12-07T10:33:06;6.35;;;3.30;;
56045;SDS011;41913;51.030;3.706;2023-12-07T10:35:32;3.30;;;3.10;;
56045;SDS011;41913;51.030;3.706;2023-12-07T10:38:03;3.30;;;3.10;;
56045;SDS011;41913;51.030;3.706;2023-12-07T10:40:28;3.40;;;2.75;;
56045;SDS011;41913;51.030;3.706;2023-12-07T10:42:56;3.47;;;3.22;;
56045;SDS011;41913;51.030;3.706;2023-12-07T10:45:26;4.20;;;3.53;;
56045;SDS011;41913;51.030;3.706;2023-12-07T10:47:56;4.43;;;3.00;;
56045;SDS011;41913;51.030;3.706;2023-12-07T10:50:34;3.30;;;3.00;;
56045;SDS011;41913;51.030;3.706;2023-12-07T10:53:04;4.40;;;3.08;;
56045;SDS011;41913;51.030;3.706;2023-12-07T10:55:52;4.00;;;2.75;;
56045;SDS011;41913;51.030;3.706;2023-12-07T10:58:21;3.47;;;2.67;;
56045;SDS011;41913;51.030;3.706;2023-12-07T11:00:50;3.70;;;3.20;;
56045;SDS011;41913;51.030;3.706;2023-12-07T11:03:17;3.50;;;3.15;;
56045;SDS011;41913;51.030;3.706;2023-12-07T11:05:46;4.38;;;3.60;;
56045;SDS011;41913;51.030;3.706;2023-12-07T11:13:29;5.57;;;3.05;;
56045;SDS011;41913;51.030;3.706;2023-12-07T11:15:59;4.60;;;3.08;;
56045;SDS011;41913;51.030;3.706;2023-12-07T11:18:25;3.03;;;2.72;;
56045;SDS011;41913;51.030;3.706;2023-12-07T11:20:52;3.10;;;2.88;;
56045;SDS011;41913;51.030;3.706;2023-12-07T11:23:18;6.05;;;3.85;;
56045;SDS011;41913;51.030;3.706;2023-12-07T11:25:46;4.72;;;3.22;;
56045;SDS011;41913;51.030;3.706;2023-12-07T11:28:13;4.57;;;2.85;;
56045;SDS011;41913;51.030;3.706;2023-12-07T11:30:43;4.10;;;3.22;;
56045;SDS011;41913;51.030;3.706;2023-12-07T11:33:10;3.50;;;3.20;;
56045;SDS011;41913;51.030;3.706;2023-12-07T11:38:27;2.85;;;2.65;;
56045;SDS011;41913;51.030;3.706;2023-12-07T11:40:56;3.38;;;2.90;;
56045;SDS011;41913;51.030;3.706;2023-12-07T11:45:57;2.95;;;2.75;;
56045;SDS011;41913;51.030;3.706;2023-12-07T11:48:23;5.13;;;2.88;;
56045;SDS011;41913;51.030;3.706;2023-12-07T11:51:08;3.13;;;2.83;;
56045;SDS011;41913;51.030;3.706;2023-12-07T11:53:36;2.85;;;2.67;;
56045;SDS011;41913;51.030;3.706;2023-12-07T11:56:04;2.35;;;2.17;;
56045;SDS011;41913;51.030;3.706;2023-12-07T11:58:31;3.38;;;3.13;;
56045;SDS011;41913;51.030;3.706;2023-12-07T12:00:59;2.53;;;2.40;;
56045;SDS011;41913;51.030;3.706;2023-12-07T12:03:25;4.70;;;2.75;;
56045;SDS011;41913;51.030;3.706;2023-12-07T12:05:57;3.47;;;2.38;;
56045;SDS011;41913;51.030;3.706;2023-12-07T12:08:23;2.35;;;2.22;;
56045;SDS011;41913;51.030;3.706;2023-12-07T12:10:50;3.30;;;3.00;;
56045;SDS011;41913;51.030;3.706;2023-12-07T12:13:18;2.63;;;2.42;;
56045;SDS011;41913;51.030;3.706;2023-12-07T12:15:44;2.38;;;2.28;;
56045;SDS011;41913;51.030;3.706;2023-12-07T12:18:14;2.88;;;2.67;;
56045;SDS011;41913;51.030;3.706;2023-12-07T12:20:41;2.35;;;2.25;;
56045;SDS011;41913;51.030;3.706;2023-12-07T12:23:09;3.22;;;2.42;;
56045;SDS011;41913;51.030;3.706;2023-12-07T12:25:35;2.78;;;2.58;;
56045;SDS011;41913;51.030;3.706;2023-12-07T12:28:02;2.40;;;2.15;;
56045;SDS011;41913;51.030;3.706;2023-12-07T12:30:29;2.67;;;2.47;;
56045;SDS011;41913;51.030;3.706;2023-12-07T12:32:56;3.78;;;2.75;;
56045;SDS011;41913;51.030;3.706;2023-12-07T12:35:22;2.72;;;2.53;;
56045;SDS011;41913;51.030;3.706;2023-12-07T12:37:49;2.78;;;2.45;;
56045;SDS011;41913;51.030;3.706;2023-12-07T12:40:16;2.92;;;2.70;;
56045;SDS011;41913;51.030;3.706;2023-12-07T12:42:47;2.13;;;2.03;;
56045;SDS011;41913;51.030;3.706;2023-12-07T12:45:17;3.25;;;2.42;;
56045;SDS011;41913;51.030;3.706;2023-12-07T12:47:44;2.17;;;2.08;;
56045;SDS011;41913;51.030;3.706;2023-12-07T12:50:13;2.28;;;2.17;;
56045;SDS011;41913;51.030;3.706;2023-12-07T12:53:02;2.38;;;2.28;;
56045;SDS011;41913;51.030;3.706;2023-12-07T12:55:30;2.60;;;2.28;;
56045;SDS011;41913;51.030;3.706;2023-12-07T12:57:58;2.08;;;1.98;;
56045;SDS011;41913;51.030;3.706;2023-12-07T13:00:27;7.32;;;2.08;;
56045;SDS011;41913;51.030;3.706;2023-12-07T13:02:52;2.40;;;1.92;;
56045;SDS011;41913;51.030;3.706;2023-12-07T13:05:18;2.58;;;2.45;;
56045;SDS011;41913;51.030;3.706;2023-12-07T13:07:44;3.63;;;2.35;;
56045;SDS011;41913;51.030;3.706;2023-12-07T13:10:13;5.30;;;2.83;;
56045;SDS011;41913;51.030;3.706;2023-12-07T13:12:42;2.38;;;2.17;;
56045;SDS011;41913;51.030;3.706;2023-12-07T13:15:09;2.45;;;2.25;;
56045;SDS011;41913;51.030;3.706;2023-12-07T13:17:35;2.30;;;2.20;;
56045;SDS011;41913;51.030;3.706;2023-12-07T13:20:01;2.53;;;2.33;;
56045;SDS011;41913;51.030;3.706;2023-12-07T13:22:27;2.33;;;2.10;;
56045;SDS011;41913;51.030;3.706;2023-12-07T13:24:52;2.08;;;1.98;;
56045;SDS011;41913;51.030;3.706;2023-12-07T13:27:19;2.53;;;2.33;;
56045;SDS011;41913;51.030;3.706;2023-12-07T13:29:45;2.53;;;2.00;;
56045;SDS011;41913;51.030;3.706;2023-12-07T13:32:11;2.17;;;1.75;;
56045;SDS011;41913;51.030;3.706;2023-12-07T13:34:37;2.28;;;2.17;;
56045;SDS011;41913;51.030;3.706;2023-12-07T13:37:03;2.50;;;2.30;;
56045;SDS011;41913;51.030;3.706;2023-12-07T13:39:30;2.53;;;2.42;;
56045;SDS011;41913;51.030;3.706;2023-12-07T13:41:56;3.38;;;1.67;;
56045;SDS011;41913;51.030;3.706;2023-12-07T13:44:22;3.53;;;2.13;;
56045;SDS011;41913;51.030;3.706;2023-12-07T13:46:49;1.85;;;1.75;;
56045;SDS011;41913;51.030;3.706;2023-12-07T13:49:15;3.38;;;2.38;;
56045;SDS011;41913;51.030;3.706;2023-12-07T13:51:41;2.13;;;2.03;;
56045;SDS011;41913;51.030;3.706;2023-12-07T13:54:08;2.20;;;2.10;;
56045;SDS011;41913;51.030;3.706;2023-12-07T13:56:34;2.65;;;2.20;;
56045;SDS011;41913;51.030;3.706;2023-12-07T13:59:00;2.53;;;2.20;;
56045;SDS011;41913;51.030;3.706;2023-12-07T14:01:27;1.92;;;1.83;;
56045;SDS011;41913;51.030;3.706;2023-12-07T14:03:53;2.05;;;1.95;;
56045;SDS011;41913;51.030;3.706;2023-12-07T14:06:23;2.17;;;2.05;;
56045;SDS011;41913;51.030;3.706;2023-12-07T14:08:50;4.40;;;2.40;;
56045;SDS011;41913;51.030;3.706;2023-12-07T14:11:18;2.53;;;2.33;;
56045;SDS011;41913;51.030;3.706;2023-12-07T14:13:45;3.17;;;2.58;;
56045;SDS011;41913;51.030;3.706;2023-12-07T14:16:15;2.38;;;2.17;;
56045;SDS011;41913;51.030;3.706;2023-12-07T14:18:41;3.05;;;2.53;;
56045;SDS011;41913;51.030;3.706;2023-12-07T14:21:07;2.75;;;2.40;;
56045;SDS011;41913;51.030;3.706;2023-12-07T14:23:33;2.20;;;2.00;;
56045;SDS011;41913;51.030;3.706;2023-12-07T14:25:59;3.63;;;2.03;;
56045;SDS011;41913;51.030;3.706;2023-12-07T14:28:25;2.90;;;1.98;;
56045;SDS011;41913;51.030;3.706;2023-12-07T14:30:53;2.00;;;1.90;;
56045;SDS011;41913;51.030;3.706;2023-12-07T14:33:21;2.28;;;2.08;;
56045;SDS011;41913;51.030;3.706;2023-12-07T14:35:47;2.53;;;2.20;;
56045;SDS011;41913;51.030;3.706;2023-12-07T14:38:14;2.53;;;2.15;;
56045;SDS011;41913;51.030;3.706;2023-12-07T14:40:40;1.80;;;1.70;;
56045;SDS011;41913;51.030;3.706;2023-12-07T14:43:06;1.58;;;1.48;;
56045;SDS011;41913;51.030;3.706;2023-12-07T14:45:32;1.98;;;1.80;;
56045;SDS011;41913;51.030;3.706;2023-12-07T14:47:57;1.90;;;1.63;;
56045;SDS011;41913;51.030;3.706;2023-12-07T14:50:23;2.53;;;1.73;;
56045;SDS011;41913;51.030;3.706;2023-12-07T14:52:49;2.40;;;2.20;;
56045;SDS011;41913;51.030;3.706;2023-12-07T14:55:15;2.05;;;1.95;;
56045;SDS011;41913;51.030;3.706;2023-12-07T14:57:43;3.60;;;2.20;;
56045;SDS011;41913;51.030;3.706;2023-12-07T15:00:10;2.47;;;2.28;;